Time;durP1;ratioP1;P1;durP2;ratioP2;P2;SDS_P1;SDS_P2;PMS_P1;PMS_P2;Temp;Humidity;BMP_temperature;BMP_pressure;BME280_temperature;BME280_humidity;BME280_pressure;Samples;Min_cycle;Max_cycle;Signal;HPM_P1;HPM_P2
2024/03/15 00:00:12;;;;;;;4.43;3.33;;;17.30;81.00;;;;;;4976338;28;20055;-36
2024/03/15 00:02:38;;;;;;;3.85;2.97;;;17.30;80.40;;;;;;4973819;28;20030;-36
2024/03/15 00:05:04;;;;;;;5.07;3.00;;;17.30;80.40;;;;;;4971300;28;20023;-33
2024/03/15 00:07:30;;;;;;;4.30;3.17;;;17.30;80.40;;;;;;4957224;28;20019;-35
2024/03/15 00:09:57;;;;;;;4.50;3.10;;;17.20;80.30;;;;;;4973586;28;20177;-35
2024/03/15 00:12:23;;;;;;;4.07;3.10;;;17.20;80.40;;;;;;4969819;28;20032;-34
2024/03/15 00:14:49;;;;;;;4.05;3.30;;;17.20;80.40;;;;;;4971950;28;20484;-38
2024/03/15 00:17:15;;;;;;;3.50;2.95;;;17.20;80.40;;;;;;4967055;28;20042;-33
2024/03/15 00:19:41;;;;;;;4.80;3.70;;;17.20;80.40;;;;;;4969997;28;20582;-34
2024/03/15 00:22:07;;;;;;;3.58;3.10;;;17.20;80.40;;;;;;4973387;28;20260;-37
2024/03/15 00:24:36;;;;;;;4.40;3.30;;;17.10;80.30;;;;;;4967551;28;20042;-37
2024/03/15 00:27:02;;;;;;;4.38;3.63;;;17.20;80.40;;;;;;4970122;28;20461;-36
2024/03/15 00:29:29;;;;;;;4.32;3.25;;;17.20;80.30;;;;;;4958189;28;20037;-36
2024/03/15 00:31:56;;;;;;;4.20;3.15;;;17.10;80.90;;;;;;4971688;28;20082;-34
2024/03/15 00:34:23;;;;;;;4.07;3.20;;;17.10;80.30;;;;;;4970064;28;20031;-33
2024/03/15 00:36:49;;;;;;;4.18;3.30;;;17.10;80.40;;;;;;4953614;28;20029;-38
2024/03/15 00:39:15;;;;;;;4.43;3.38;;;17.10;80.30;;;;;;4973938;28;20026;-31
2024/03/15 00:41:42;;;;;;;4.13;3.40;;;17.10;80.40;;;;;;4974167;28;20015;-37
2024/03/15 00:44:08;;;;;;;5.07;3.67;;;17.10;80.40;;;;;;4975379;28;20031;-34
2024/03/15 00:46:35;;;;;;;4.30;3.38;;;17.00;80.30;;;;;;4948912;28;20034;-36
2024/03/15 00:49:01;;;;;;;4.55;3.25;;;17.00;80.30;;;;;;4971732;28;20082;-38
2024/03/15 00:51:26;;;;;;;4.47;3.47;;;17.00;80.30;;;;;;4966141;28;20051;-32
2024/03/15 00:53:52;;;;;;;4.50;3.20;;;17.00;80.30;;;;;;4972801;28;20033;-36
2024/03/15 00:56:18;;;;;;;5.32;3.88;;;17.00;80.30;;;;;;4966456;28;20047;-34
2024/03/15 00:58:44;;;;;;;4.63;3.63;;;17.00;80.30;;;;;;4954806;28;20037;-37
2024/03/15 01:01:10;;;;;;;4.72;3.45;;;16.90;80.20;;;;;;4971719;28;20027;-36
2024/03/15 01:03:36;;;;;;;4.30;3.50;;;16.90;80.30;;;;;;4965547;28;20027;-37
2024/03/15 01:06:02;;;;;;;4.57;3.50;;;16.90;80.30;;;;;;4974496;28;20063;-37
2024/03/15 01:08:28;;;;;;;4.30;3.50;;;16.90;80.30;;;;;;4968917;28;20058;-35
2024/03/15 01:10:54;;;;;;;4.20;3.38;;;16.90;80.30;;;;;;4972243;28;20063;-33
2024/03/15 01:13:20;;;;;;;5.28;3.85;;;16.90;80.30;;;;;;4970425;28;20027;-37
2024/03/15 01:15:46;;;;;;;4.22;3.33;;;16.90;80.30;;;;;;4953026;28;20035;-33
2024/03/15 01:18:12;;;;;;;4.45;3.67;;;16.90;80.30;;;;;;4969943;28;20030;-37
2024/03/15 01:20:39;;;;;;;5.18;3.95;;;16.90;80.30;;;;;;4971916;28;20102;-36
2024/03/15 01:23:05;;;;;;;5.22;3.85;;;16.80;80.30;;;;;;4955751;28;20050;-37
2024/03/15 01:25:31;;;;;;;4.88;3.70;;;16.90;80.30;;;;;;4965568;28;20364;-35
2024/03/15 01:28:00;;;;;;;4.53;3.60;;;16.80;80.30;;;;;;4966948;28;20543;-36
2024/03/15 01:30:26;;;;;;;5.05;3.83;;;16.80;80.30;;;;;;4970335;28;20121;-35
2024/03/15 01:32:51;;;;;;;5.00;3.97;;;16.80;80.30;;;;;;4967556;28;20023;-38
2024/03/15 01:35:17;;;;;;;4.78;3.78;;;16.80;80.30;;;;;;4972631;28;20046;-35
2024/03/15 01:37:43;;;;;;;5.10;3.78;;;16.80;80.30;;;;;;4970436;28;20479;-36
2024/03/15 01:40:12;;;;;;;5.60;3.75;;;16.80;80.40;;;;;;4974603;28;20082;-36
2024/03/15 01:42:38;;;;;;;6.90;3.85;;;16.80;80.40;;;;;;4972532;28;20043;-34
2024/03/15 01:45:04;;;;;;;4.80;3.75;;;16.80;80.30;;;;;;4973920;28;20046;-32
2024/03/15 01:47:30;;;;;;;5.45;4.10;;;16.80;80.40;;;;;;4962420;28;20183;-34
2024/03/15 01:49:57;;;;;;;5.25;4.07;;;16.80;80.40;;;;;;4972099;28;20050;-36
2024/03/15 01:52:26;;;;;;;5.00;3.90;;;16.70;80.30;;;;;;4970475;28;20039;-37
2024/03/15 01:54:52;;;;;;;4.75;3.90;;;16.70;80.30;;;;;;4975214;28;20110;-35
2024/03/15 01:57:19;;;;;;;4.90;3.90;;;16.70;80.40;;;;;;4969375;28;20049;-38
2024/03/15 01:59:44;;;;;;;5.50;4.30;;;16.70;80.40;;;;;;4957524;28;20026;-38
2024/03/15 02:02:13;;;;;;;4.57;3.72;;;16.70;80.40;;;;;;4965601;28;20024;-37
2024/03/15 02:04:39;;;;;;;4.32;3.40;;;16.70;80.50;;;;;;4965019;28;20035;-38
2024/03/15 02:07:05;;;;;;;4.65;3.85;;;16.70;80.40;;;;;;4953901;28;20042;-37
2024/03/15 02:09:31;;;;;;;4.75;3.63;;;16.70;80.40;;;;;;4968511;28;20429;-37
2024/03/15 02:11:57;;;;;;;5.57;4.10;;;16.70;80.40;;;;;;4968392;28;20122;-35
2024/03/15 02:14:23;;;;;;;6.03;4.05;;;16.70;80.40;;;;;;4964379;28;20054;-37
2024/03/15 02:16:49;;;;;;;5.47;3.80;;;16.70;80.40;;;;;;4972535;28;20019;-34
2024/03/15 02:19:15;;;;;;;4.70;3.65;;;16.70;80.40;;;;;;4960368;28;20035;-35
2024/03/15 02:21:41;;;;;;;5.05;4.30;;;16.70;80.40;;;;;;4970327;28;20108;-35
2024/03/15 02:24:07;;;;;;;4.82;3.78;;;16.70;80.50;;;;;;4964731;28;20500;-36
2024/03/15 02:26:33;;;;;;;5.03;4.00;;;16.70;80.50;;;;;;4977597;28;20034;-32
2024/03/15 02:28:59;;;;;;;5.50;3.85;;;16.70;80.50;;;;;;4949202;28;20027;-33
2024/03/15 02:31:25;;;;;;;4.95;3.80;;;16.70;80.50;;;;;;4955118;28;20043;-35
2024/03/15 02:33:51;;;;;;;5.80;4.40;;;16.70;81.20;;;;;;4968149;28;20062;-36
2024/03/15 02:36:17;;;;;;;4.88;3.97;;;16.60;80.50;;;;;;4968400;28;20034;-35
2024/03/15 02:38:43;;;;;;;5.78;4.45;;;16.60;80.50;;;;;;4975291;28;20482;-32
2024/03/15 02:41:13;;;;;;;5.55;4.43;;;16.60;80.50;;;;;;4952107;28;20031;-35
2024/03/15 02:43:44;;;;;;;4.65;3.47;;;16.60;80.50;;;;;;4973895;28;20015;-34
2024/03/15 02:46:10;;;;;;;5.30;3.90;;;16.70;80.60;;;;;;4973321;28;20046;-37
2024/03/15 02:48:41;;;;;;;5.32;4.35;;;16.60;80.50;;;;;;4951811;28;20055;-36
2024/03/15 02:51:07;;;;;;;5.85;4.15;;;16.60;80.60;;;;;;4969956;28;20121;-33
2024/03/15 02:53:33;;;;;;;5.10;3.92;;;16.60;80.60;;;;;;4975206;28;20062;-33
2024/03/15 02:56:02;;;;;;;5.78;4.45;;;16.60;80.50;;;;;;4972200;28;20079;-34
2024/03/15 02:58:28;;;;;;;4.90;3.95;;;16.60;80.50;;;;;;4973060;28;20473;-35
2024/03/15 03:00:54;;;;;;;6.25;4.53;;;16.60;80.50;;;;;;4977294;28;20018;-37
2024/03/15 03:03:21;;;;;;;5.10;3.95;;;16.60;80.50;;;;;;4971617;28;20103;-36
2024/03/15 03:05:47;;;;;;;4.68;3.90;;;16.60;80.60;;;;;;4969017;28;20023;-40
2024/03/15 03:08:15;;;;;;;7.03;4.35;;;16.60;81.20;;;;;;4972764;28;20030;-37
2024/03/15 03:10:44;;;;;;;5.18;4.13;;;16.60;80.60;;;;;;4975965;28;20031;-36
2024/03/15 03:13:09;;;;;;;5.78;4.22;;;16.60;80.60;;;;;;4971448;28;20495;-38
2024/03/15 03:15:36;;;;;;;5.90;4.30;;;16.60;80.60;;;;;;4939806;28;20047;-37
2024/03/15 03:18:02;;;;;;;5.20;4.03;;;16.60;80.60;;;;;;4969042;28;20206;-37
2024/03/15 03:20:32;;;;;;;5.57;4.18;;;16.60;80.60;;;;;;4973112;28;20034;-39
2024/03/15 03:23:02;;;;;;;5.40;4.28;;;16.60;80.60;;;;;;4970224;28;20027;-39
2024/03/15 03:25:28;;;;;;;4.80;4.00;;;16.60;80.60;;;;;;4973278;28;20034;-39
2024/03/15 03:27:55;;;;;;;5.20;4.03;;;16.60;80.60;;;;;;4968567;28;20451;-39
2024/03/15 03:30:21;;;;;;;5.75;4.50;;;16.50;80.60;;;;;;4973865;28;20041;-40
2024/03/15 03:32:47;;;;;;;5.82;4.30;;;16.50;80.60;;;;;;4958671;28;20031;-37
2024/03/15 03:35:16;;;;;;;5.95;4.18;;;16.60;80.70;;;;;;4947501;28;20102;-39
2024/03/15 03:37:43;;;;;;;4.80;3.95;;;16.50;80.60;;;;;;4974659;28;20027;-36
2024/03/15 03:40:14;;;;;;;4.78;3.83;;;16.50;80.60;;;;;;4973009;28;20039;-40
2024/03/15 03:42:43;;;;;;;5.68;4.30;;;16.50;80.60;;;;;;4976208;28;20479;-40
2024/03/15 03:45:15;;;;;;;5.30;4.22;;;16.50;80.60;;;;;;4972340;28;20023;-38
2024/03/15 03:47:45;;;;;;;5.20;3.97;;;16.50;80.60;;;;;;4970407;28;20071;-39
2024/03/15 03:50:12;;;;;;;5.22;4.20;;;16.50;80.60;;;;;;4966355;28;20077;-36
2024/03/15 03:52:39;;;;;;;5.70;4.03;;;16.50;80.60;;;;;;4975628;28;20042;-37
2024/03/15 03:55:08;;;;;;;5.60;4.32;;;16.50;80.60;;;;;;4953463;28;20050;-38
2024/03/15 03:57:37;;;;;;;5.25;3.97;;;16.50;80.60;;;;;;4973752;28;20089;-40
2024/03/15 04:00:07;;;;;;;5.20;4.10;;;16.50;80.60;;;;;;4971804;28;20114;-37
2024/03/15 04:02:37;;;;;;;;;;;16.50;80.60;;;;;;4953648;28;20039;-38
2024/03/15 04:05:03;;;;;;;5.43;3.60;;;16.40;80.50;;;;;;4973076;28;19925;-40
2024/03/15 04:07:30;;;;;;;4.75;3.83;;;16.40;80.50;;;;;;4964953;28;20401;-36
2024/03/15 04:09:57;;;;;;;5.75;4.15;;;16.40;80.60;;;;;;4972670;28;20580;-39
2024/03/15 04:12:22;;;;;;;5.20;4.07;;;16.40;80.60;;;;;;4972896;28;20034;-40
2024/03/15 04:14:51;;;;;;;6.45;4.45;;;16.40;80.60;;;;;;4966436;28;20040;-40
2024/03/15 04:17:17;;;;;;;6.10;4.47;;;16.40;80.60;;;;;;4967319;28;20046;-38
2024/03/15 04:19:47;;;;;;;4.88;4.18;;;16.40;80.60;;;;;;4972540;28;20546;-39
2024/03/15 04:22:13;;;;;;;5.35;3.95;;;16.40;80.60;;;;;;4971838;28;20106;-32
2024/03/15 04:24:39;;;;;;;5.60;3.90;;;16.40;80.70;;;;;;4969646;28;20031;-40
2024/03/15 04:27:08;;;;;;;5.38;4.00;;;16.40;80.60;;;;;;4970800;28;20026;-41
2024/03/15 04:29:35;;;;;;;6.63;4.38;;;16.40;80.60;;;;;;4970652;28;20031;-40
2024/03/15 04:32:05;;;;;;;5.30;4.03;;;16.40;80.60;;;;;;4974202;28;20031;-39
2024/03/15 04:34:33;;;;;;;5.47;4.30;;;16.40;80.60;;;;;;4969930;28;20115;-40
2024/03/15 04:36:58;;;;;;;5.30;4.30;;;16.40;80.60;;;;;;4972622;28;20037;-37
2024/03/15 04:39:24;;;;;;;4.97;3.90;;;16.40;80.60;;;;;;4975658;28;20109;-40
2024/03/15 04:41:50;;;;;;;5.18;3.88;;;16.40;80.70;;;;;;4974945;28;20026;-41
2024/03/15 04:44:16;;;;;;;6.13;4.22;;;16.40;80.70;;;;;;4976878;28;20487;-39
2024/03/15 04:46:42;;;;;;;5.70;4.10;;;16.40;80.70;;;;;;4962973;28;20026;-40
2024/03/15 04:49:08;;;;;;;5.70;4.55;;;16.40;80.70;;;;;;4967891;28;20082;-41
2024/03/15 04:51:34;;;;;;;6.43;4.20;;;16.30;80.70;;;;;;4970196;28;20045;-40
2024/03/15 04:54:00;;;;;;;5.88;4.22;;;16.30;80.70;;;;;;4971719;28;20051;-41
2024/03/15 04:56:26;;;;;;;5.78;4.28;;;16.30;80.70;;;;;;4968255;28;20031;-41
2024/03/15 04:58:52;;;;;;;5.75;4.53;;;16.30;80.70;;;;;;4967777;28;20033;-41
2024/03/15 05:01:17;;;;;;;6.25;4.38;;;16.30;80.70;;;;;;4967462;28;20034;-40
2024/03/15 05:03:43;;;;;;;6.72;4.18;;;16.30;80.70;;;;;;4952151;28;20051;-41
2024/03/15 05:06:09;;;;;;;6.93;4.45;;;16.30;80.70;;;;;;4970880;28;20057;-41
2024/03/15 05:08:35;;;;;;;5.55;4.25;;;16.30;80.70;;;;;;4966109;28;20019;-40
2024/03/15 05:11:01;;;;;;;6.28;4.38;;;16.30;80.70;;;;;;4965931;28;20042;-40
2024/03/15 05:13:27;;;;;;;5.65;4.38;;;16.30;80.70;;;;;;4966403;28;20019;-41
2024/03/15 05:15:53;;;;;;;5.95;4.45;;;16.30;80.70;;;;;;4972393;28;20043;-41
2024/03/15 05:18:20;;;;;;;5.30;3.97;;;16.30;80.70;;;;;;4970822;28;20035;-39
2024/03/15 05:20:48;;;;;;;6.40;4.53;;;16.30;80.70;;;;;;4977932;28;20635;-42
2024/03/15 05:23:14;;;;;;;5.35;4.25;;;16.30;80.70;;;;;;4973555;28;20039;-40
2024/03/15 05:25:40;;;;;;;5.13;3.95;;;16.30;80.70;;;;;;4964418;28;20059;-40
2024/03/15 05:28:09;;;;;;;6.13;4.38;;;16.30;80.70;;;;;;4973611;28;20493;-41
2024/03/15 05:30:36;;;;;;;5.68;4.30;;;16.20;80.60;;;;;;4976800;28;20041;-41
2024/03/15 05:33:02;;;;;;;6.07;4.07;;;16.20;80.70;;;;;;4968870;28;20023;-39
2024/03/15 05:35:28;;;;;;;5.40;4.07;;;16.20;80.70;;;;;;4977350;28;20031;-39
2024/03/15 05:37:54;;;;;;;6.00;4.45;;;16.20;80.70;;;;;;4958778;28;20063;-39
2024/03/15 05:40:21;;;;;;;5.47;4.07;;;16.20;80.60;;;;;;4969433;28;20111;-36
2024/03/15 05:42:47;;;;;;;5.65;3.97;;;16.20;80.70;;;;;;4959307;28;20491;-40
2024/03/15 05:45:14;;;;;;;4.78;3.72;;;16.20;80.70;;;;;;4979027;28;20062;-38
2024/03/15 05:47:39;;;;;;;6.15;3.88;;;16.20;80.70;;;;;;4970567;28;20164;-40
2024/03/15 05:50:06;;;;;;;5.10;4.10;;;16.20;80.70;;;;;;4974170;28;20106;-39
2024/03/15 05:52:32;;;;;;;5.40;4.00;;;16.20;80.70;;;;;;4954572;28;20089;-40
2024/03/15 05:55:01;;;;;;;5.40;4.05;;;16.20;80.70;;;;;;4966272;28;20066;-39
2024/03/15 05:57:28;;;;;;;6.10;4.25;;;16.20;80.70;;;;;;4977300;28;20035;-40
2024/03/15 05:59:59;;;;;;;5.60;4.22;;;16.20;80.70;;;;;;4975724;28;20026;-40
2024/03/15 06:02:25;;;;;;;6.22;4.20;;;16.20;80.70;;;;;;4969518;28;20090;-40
2024/03/15 06:04:50;;;;;;;6.55;4.38;;;16.10;80.60;;;;;;4969882;28;20058;-39
2024/03/15 06:07:16;;;;;;;5.35;4.20;;;16.10;80.70;;;;;;4967051;28;20031;-39
2024/03/15 06:09:42;;;;;;;4.95;3.72;;;16.10;80.70;;;;;;4974453;28;20027;-40
2024/03/15 06:12:08;;;;;;;5.13;3.70;;;16.10;80.70;;;;;;4966503;28;20556;-38
2024/03/15 06:14:34;;;;;;;5.68;4.40;;;16.10;80.80;;;;;;4974370;28;20507;-40
2024/03/15 06:17:00;;;;;;;5.07;4.05;;;16.10;80.80;;;;;;4972860;28;20023;-40
2024/03/15 06:19:26;;;;;;;5.53;3.95;;;16.10;80.80;;;;;;4968658;28;20030;-38
2024/03/15 06:21:53;;;;;;;5.78;4.13;;;16.10;80.80;;;;;;4978076;28;20057;-41
2024/03/15 06:24:21;;;;;;;5.13;3.95;;;16.10;80.80;;;;;;4969815;28;20063;-40
2024/03/15 06:26:48;;;;;;;5.75;3.58;;;16.10;80.80;;;;;;4969031;28;20090;-40
2024/03/15 06:29:16;;;;;;;5.40;3.83;;;16.00;80.70;;;;;;4968797;28;20078;-40
2024/03/15 06:31:45;;;;;;;6.60;4.32;;;16.00;80.80;;;;;;4976335;28;20063;-39
2024/03/15 06:34:10;;;;;;;5.25;3.95;;;16.00;80.80;;;;;;4966715;28;20029;-41
2024/03/15 06:36:43;;;;;;;5.05;3.70;;;16.00;80.80;;;;;;4975130;28;20067;-41
2024/03/15 06:39:30;;;;;;;5.75;3.97;;;16.00;80.80;;;;;;4976150;28;20050;-37
2024/03/15 06:41:55;;;;;;;5.07;4.00;;;16.00;80.80;;;;;;4974467;28;20034;-41
2024/03/15 06:44:25;;;;;;;5.60;3.80;;;16.00;80.80;;;;;;4970947;28;20028;-40
2024/03/15 06:49:44;;;;;;;5.68;3.80;;;16.00;80.90;;;;;;4969049;28;20031;-42
2024/03/15 06:54:56;;;;;;;5.20;3.83;;;15.90;80.80;;;;;;4953514;28;20074;-41
2024/03/15 06:57:27;;;;;;;4.70;3.75;;;16.00;80.90;;;;;;4947811;28;20031;-40
2024/03/15 06:59:53;;;;;;;5.05;3.60;;;15.90;80.90;;;;;;4982123;28;20039;-41
2024/03/15 07:02:19;;;;;;;4.80;3.70;;;15.90;80.90;;;;;;4980604;28;20062;-39
2024/03/15 07:04:45;;;;;;;5.82;3.88;;;15.90;80.90;;;;;;4963533;28;20122;-39
2024/03/15 07:07:13;;;;;;;4.68;3.63;;;16.00;81.00;;;;;;4972494;28;20019;-39
2024/03/15 07:09:40;;;;;;;5.20;3.85;;;15.90;80.90;;;;;;4974117;28;20023;-41
2024/03/15 07:12:06;;;;;;;5.35;3.88;;;15.90;80.90;;;;;;4986160;28;20038;-41
2024/03/15 07:14:32;;;;;;;5.43;3.90;;;15.90;80.90;;;;;;4974033;28;20022;-39
2024/03/15 07:16:58;;;;;;;4.78;3.58;;;15.90;80.90;;;;;;4977596;28;20026;-38
2024/03/15 07:19:23;;;;;;;5.50;4.00;;;15.90;80.90;;;;;;4957211;28;20053;-35
2024/03/15 07:21:49;;;;;;;4.38;3.30;;;15.90;80.90;;;;;;4970116;28;20326;-36
2024/03/15 07:24:15;;;;;;;4.70;3.60;;;15.90;80.80;;;;;;4969384;28;20038;-38
2024/03/15 07:26:40;;;;;;;4.50;3.47;;;15.90;80.80;;;;;;4977290;28;20023;-38
2024/03/15 07:29:07;;;;;;;5.53;3.35;;;15.90;80.90;;;;;;4976980;28;20379;-36
2024/03/15 07:31:33;;;;;;;5.57;3.78;;;15.90;80.80;;;;;;4976996;28;20078;-35
2024/03/15 07:33:59;;;;;;;5.10;4.00;;;16.00;80.90;;;;;;4957862;28;20030;-38
2024/03/15 07:36:27;;;;;;;4.95;3.63;;;15.90;80.80;;;;;;4977842;28;20294;-38
2024/03/15 07:38:52;;;;;;;4.30;3.47;;;16.00;80.90;;;;;;4980945;28;20030;-38
2024/03/15 07:41:21;;;;;;;6.07;3.78;;;16.00;80.90;;;;;;4980258;28;20117;-40
2024/03/15 07:43:47;;;;;;;4.55;3.50;;;16.00;81.50;;;;;;4977775;28;20011;-37
2024/03/15 07:46:13;;;;;;;5.18;3.90;;;15.90;80.80;;;;;;4982997;28;20023;-39
2024/03/15 07:48:41;;;;;;;6.10;4.03;;;16.00;80.90;;;;;;4974561;28;20070;-39
2024/03/15 07:51:07;;;;;;;5.18;4.03;;;16.00;80.90;;;;;;4974608;28;20053;-32
2024/03/15 07:53:33;;;;;;;4.85;3.72;;;16.00;80.90;;;;;;4976443;28;20039;-38
2024/03/15 07:56:03;;;;;;;4.60;3.60;;;16.00;80.90;;;;;;4972018;28;20036;-36
2024/03/15 07:58:29;;;;;;;5.55;3.95;;;16.00;80.90;;;;;;4968217;28;20058;-38
2024/03/15 08:00:56;;;;;;;5.07;3.88;;;16.00;80.90;;;;;;4971093;28;20029;-37
2024/03/15 08:03:23;;;;;;;5.00;3.78;;;16.00;80.90;;;;;;4970477;28;20035;-38
2024/03/15 08:05:49;;;;;;;5.18;3.67;;;16.00;80.90;;;;;;4952599;28;20027;-39
2024/03/15 08:08:16;;;;;;;5.30;3.78;;;16.00;80.90;;;;;;4962722;28;20112;-36
2024/03/15 08:10:41;;;;;;;4.60;3.80;;;16.00;80.80;;;;;;4962819;28;20031;-35
2024/03/15 08:13:07;;;;;;;5.80;4.25;;;16.00;80.90;;;;;;4972807;28;20563;-37
2024/03/15 08:15:33;;;;;;;5.30;3.78;;;16.00;80.90;;;;;;4962541;28;20023;-39
2024/03/15 08:18:00;;;;;;;5.15;4.07;;;16.00;80.90;;;;;;4963324;28;20027;-41
2024/03/15 08:20:26;;;;;;;4.95;3.80;;;16.10;80.90;;;;;;4957465;28;20503;-41
2024/03/15 08:22:55;;;;;;;5.78;4.03;;;16.00;80.90;;;;;;4975351;28;20249;-40
2024/03/15 08:25:22;;;;;;;6.03;3.97;;;16.10;80.90;;;;;;4967067;28;20031;-41
2024/03/15 08:27:48;;;;;;;5.28;3.80;;;16.10;80.90;;;;;;4975540;28;20046;-41
2024/03/15 08:30:14;;;;;;;5.22;3.92;;;16.10;81.50;;;;;;4981998;28;20021;-41
2024/03/15 08:32:40;;;;;;;5.32;3.58;;;16.10;80.90;;;;;;4979246;28;20035;-41
2024/03/15 08:35:08;;;;;;;5.22;3.63;;;16.10;80.90;;;;;;4971577;28;20034;-41
2024/03/15 08:37:34;;;;;;;4.30;3.42;;;16.10;80.90;;;;;;4968227;28;20038;-42
2024/03/15 08:39:59;;;;;;;5.00;4.00;;;16.10;80.90;;;;;;4979800;28;20023;-41
2024/03/15 08:42:25;;;;;;;5.00;3.63;;;16.10;80.90;;;;;;4985564;28;20026;-41
2024/03/15 08:44:51;;;;;;;5.78;4.13;;;16.10;80.90;;;;;;4977726;28;20023;-39
2024/03/15 08:47:18;;;;;;;5.75;3.78;;;16.10;80.90;;;;;;4962384;28;20102;-40
2024/03/15 08:49:45;;;;;;;5.30;3.55;;;16.10;80.90;;;;;;4964161;28;20035;-40
2024/03/15 08:52:15;;;;;;;4.30;3.50;;;16.10;80.90;;;;;;4990112;28;20042;-42
2024/03/15 08:54:42;;;;;;;6.07;3.67;;;16.20;81.00;;;;;;4974842;28;20110;-42
2024/03/15 08:57:10;;;;;;;4.68;3.53;;;16.20;81.00;;;;;;4980595;28;20035;-41
2024/03/15 08:59:37;;;;;;;4.97;3.25;;;16.20;80.90;;;;;;4972485;28;20502;-40
2024/03/15 09:02:04;;;;;;;4.32;3.20;;;16.20;80.90;;;;;;4982051;28;20019;-41
2024/03/15 09:04:30;;;;;;;5.00;3.85;;;16.20;80.90;;;;;;4968444;28;20095;-41
2024/03/15 09:06:56;;;;;;;4.78;3.65;;;16.20;80.90;;;;;;4973688;28;20022;-41
2024/03/15 09:09:31;;;;;;;4.88;3.15;;;16.20;80.90;;;;;;4976490;28;20490;-41
2024/03/15 09:11:58;;;;;;;4.78;3.53;;;16.20;80.90;;;;;;4976348;28;20568;-41
2024/03/15 09:14:24;;;;;;;5.32;3.47;;;16.20;80.90;;;;;;4962769;28;20054;-41
2024/03/15 09:16:50;;;;;;;5.25;3.80;;;16.30;80.90;;;;;;4970500;28;20094;-42
2024/03/15 09:19:19;;;;;;;4.57;3.70;;;16.30;80.90;;;;;;4976151;28;20051;-42
2024/03/15 09:21:48;;;;;;;4.47;3.50;;;16.30;80.90;;;;;;4981167;28;20703;-41
2024/03/15 09:24:14;;;;;;;5.88;3.63;;;16.30;80.90;;;;;;4974056;28;20050;-41
2024/03/15 09:26:41;;;;;;;5.03;3.72;;;16.30;80.90;;;;;;4972147;28;20435;-40
2024/03/15 09:29:06;;;;;;;4.75;3.75;;;16.30;80.90;;;;;;4972123;28;20037;-41
2024/03/15 09:31:35;;;;;;;4.75;3.45;;;16.30;80.90;;;;;;4970860;28;20145;-40
2024/03/15 09:34:01;;;;;;;6.07;3.90;;;16.30;80.80;;;;;;4972003;28;20032;-41
2024/03/15 09:36:28;;;;;;;5.00;3.45;;;16.30;80.80;;;;;;4963746;28;20038;-41
2024/03/15 09:38:55;;;;;;;4.75;3.45;;;16.30;80.80;;;;;;4979231;28;20053;-39
2024/03/15 09:41:22;;;;;;;4.50;3.60;;;16.30;80.80;;;;;;4986644;28;20399;-40
2024/03/15 09:43:48;;;;;;;5.30;3.53;;;16.30;80.80;;;;;;4979885;28;20035;-41
2024/03/15 09:46:16;;;;;;;5.75;3.90;;;16.40;80.90;;;;;;4969328;28;20035;-38
2024/03/15 09:48:44;;;;;;;4.35;3.47;;;16.40;80.90;;;;;;4978067;28;20039;-40
2024/03/15 09:51:16;;;;;;;4.40;3.35;;;16.40;80.90;;;;;;4985734;28;20046;-41
2024/03/15 09:53:42;;;;;;;4.75;3.55;;;16.40;80.90;;;;;;4977483;28;20090;-41
2024/03/15 09:56:15;;;;;;;5.47;3.53;;;16.40;80.90;;;;;;4973607;28;20114;-42
2024/03/15 09:59:00;;;;;;;5.38;3.15;;;16.40;80.90;;;;;;4963703;28;20038;-41
2024/03/15 10:01:26;;;;;;;4.50;3.35;;;16.40;80.90;;;;;;4965831;28;20035;-40
2024/03/15 10:03:52;;;;;;;5.75;3.30;;;16.40;80.90;;;;;;4977890;28;20445;-41
2024/03/15 10:06:20;;;;;;;4.78;3.40;;;16.40;80.90;;;;;;4981183;28;20058;-40
2024/03/15 10:08:48;;;;;;;4.50;3.30;;;16.50;80.90;;;;;;4977695;28;20054;-40
2024/03/15 10:11:14;;;;;;;4.25;3.05;;;16.50;80.90;;;;;;4982514;28;20085;-40
2024/03/15 10:13:40;;;;;;;3.75;3.00;;;16.50;80.80;;;;;;4969720;28;20211;-41
2024/03/15 10:16:09;;;;;;;3.83;3.17;;;16.50;80.80;;;;;;4972554;28;20028;-39
2024/03/15 10:18:38;;;;;;;3.80;3.00;;;16.50;80.80;;;;;;4971163;28;20706;-41
2024/03/15 10:21:07;;;;;;;5.53;2.85;;;16.60;80.90;;;;;;4982253;28;20019;-40
2024/03/15 10:23:33;;;;;;;4.18;2.70;;;16.60;80.80;;;;;;4972569;28;20057;-42
2024/03/15 10:26:00;;;;;;;3.13;2.45;;;16.60;80.70;;;;;;4968641;28;20484;-39
2024/03/15 10:28:27;;;;;;;4.35;3.00;;;16.60;80.70;;;;;;4978906;28;20095;-41
2024/03/15 10:30:55;;;;;;;3.70;2.38;;;16.70;80.80;;;;;;4975382;28;20557;-39
2024/03/15 10:33:21;;;;;;;2.95;2.40;;;16.70;80.70;;;;;;4956670;28;20110;-39
2024/03/15 10:35:47;;;;;;;6.00;2.85;;;16.70;80.70;;;;;;4972602;28;20027;-40
2024/03/15 10:38:14;;;;;;;4.10;2.60;;;16.80;80.70;;;;;;4978321;28;20087;-41
2024/03/15 10:40:40;;;;;;;2.97;2.30;;;16.80;80.70;;;;;;4980029;28;20098;-41
2024/03/15 10:43:11;;;;;;;3.53;2.40;;;16.90;80.70;;;;;;4976525;28;20082;-41
2024/03/15 10:45:38;;;;;;;2.88;2.38;;;16.90;80.70;;;;;;4977613;28;20033;-41
2024/03/15 10:48:12;;;;;;;3.17;2.50;;;16.90;80.70;;;;;;4966533;28;246206;-40
2024/03/15 10:50:40;;;;;;;3.47;2.28;;;17.00;80.70;;;;;;4971828;28;20040;-39
2024/03/15 10:53:14;;;;;;;3.85;2.53;;;17.00;80.70;;;;;;4986024;28;20031;-40
2024/03/15 10:55:40;;;;;;;3.10;2.15;;;17.10;80.70;;;;;;4962811;28;20066;-38
2024/03/15 10:58:08;;;;;;;3.45;2.45;;;17.10;80.70;;;;;;4968009;28;20035;-37
2024/03/15 11:00:35;;;;;;;4.40;2.50;;;17.10;80.70;;;;;;4967742;28;20030;-40
2024/03/15 11:03:30;;;;;;;3.25;2.40;;;17.20;80.70;;;;;;4971958;28;20263;-33
2024/03/15 11:06:00;;;;;;;3.05;2.42;;;17.20;81.30;;;;;;4977171;28;20106;-38
2024/03/15 11:08:26;;;;;;;5.05;2.30;;;17.30;80.60;;;;;;4977540;28;20091;-42
2024/03/15 11:10:54;;;;;;;3.88;2.88;;;17.30;80.60;;;;;;4981088;28;20027;-39
2024/03/15 11:13:23;;;;;;;3.38;2.55;;;17.40;80.70;;;;;;4970459;28;20046;-41
2024/03/15 11:15:49;;;;;;;3.53;2.53;;;17.40;80.50;;;;;;4975199;28;20031;-40
2024/03/15 11:18:17;;;;;;;3.33;2.40;;;17.40;80.50;;;;;;4981991;28;20640;-39
2024/03/15 11:20:46;;;;;;;4.00;2.85;;;17.50;80.50;;;;;;4986343;28;20022;-40
2024/03/15 11:23:14;;;;;;;3.55;2.70;;;17.50;80.40;;;;;;4964328;28;20046;-39
2024/03/15 11:25:44;;;;;;;3.55;2.67;;;17.50;80.30;;;;;;4969989;28;20066;-39
2024/03/15 11:28:10;;;;;;;3.53;2.58;;;17.60;80.30;;;;;;4968079;28;20395;-36
2024/03/15 11:30:36;;;;;;;3.20;2.30;;;17.70;80.30;;;;;;4982054;28;20042;-36
2024/03/15 11:33:02;;;;;;;3.17;2.22;;;17.70;80.20;;;;;;4980081;28;20019;-39
2024/03/15 11:35:28;;;;;;;3.95;2.63;;;17.70;80.20;;;;;;4970206;28;20031;-40
2024/03/15 11:37:57;;;;;;;3.97;2.97;;;17.80;80.20;;;;;;4945715;28;20031;-39
2024/03/15 11:40:24;;;;;;;4.05;2.80;;;17.80;80.20;;;;;;4978499;28;20015;-36
2024/03/15 11:42:50;;;;;;;3.00;2.45;;;17.80;80.20;;;;;;4982096;28;20039;-33
2024/03/15 11:45:16;;;;;;;3.85;2.55;;;17.90;80.30;;;;;;4982882;28;20026;-35
2024/03/15 11:47:42;;;;;;;3.20;2.63;;;17.90;80.20;;;;;;4977610;28;20073;-34
2024/03/15 11:50:14;;;;;;;4.45;2.83;;;17.90;80.10;;;;;;4961002;28;20034;-34
2024/03/15 11:52:40;;;;;;;3.75;2.50;;;18.00;80.10;;;;;;4954158;28;20047;-37
2024/03/15 11:55:11;;;;;;;3.28;2.70;;;18.00;80.10;;;;;;4950306;28;20484;-32
2024/03/15 11:57:39;;;;;;;4.28;2.72;;;18.00;80.10;;;;;;4948944;28;20038;-41
2024/03/15 12:00:13;;;;;;;4.15;3.03;;;18.00;80.00;;;;;;4974307;28;20031;-39
2024/03/15 12:02:39;;;;;;;3.70;2.83;;;18.10;80.10;;;;;;4962099;28;20566;-37
2024/03/15 12:05:12;;;;;;;4.07;3.03;;;18.00;80.00;;;;;;4978763;28;20022;-35
2024/03/15 12:07:38;;;;;;;5.82;3.30;;;18.10;80.00;;;;;;4972784;28;20025;-38
2024/03/15 12:10:11;;;;;;;4.57;3.10;;;18.10;80.00;;;;;;4959922;28;20019;-39
2024/03/15 12:12:37;;;;;;;3.72;2.83;;;18.10;80.00;;;;;;4981186;28;20594;-37
2024/03/15 12:15:05;;;;;;;3.80;3.00;;;18.10;80.00;;;;;;4980545;28;20087;-35
2024/03/15 12:17:31;;;;;;;5.10;3.30;;;18.10;80.00;;;;;;4977000;28;20038;-36
2024/03/15 12:19:59;;;;;;;4.53;3.45;;;18.10;80.00;;;;;;4971674;28;20027;-34
2024/03/15 12:22:25;;;;;;;5.32;3.15;;;18.10;80.10;;;;;;4989047;28;20616;-39
2024/03/15 12:24:51;;;;;;;3.75;2.90;;;18.10;80.00;;;;;;4967343;28;20023;-38
2024/03/15 12:27:17;;;;;;;4.28;2.88;;;18.10;80.00;;;;;;4979628;28;20067;-33
2024/03/15 12:29:43;;;;;;;4.00;3.00;;;18.10;80.00;;;;;;4960639;28;20381;-33
2024/03/15 12:32:09;;;;;;;3.83;2.90;;;18.10;80.00;;;;;;4973949;28;20038;-38
2024/03/15 12:34:34;;;;;;;3.72;3.10;;;18.10;80.00;;;;;;4969427;28;20038;-34
2024/03/15 12:37:00;;;;;;;4.43;2.88;;;18.10;80.00;;;;;;4966345;28;20158;-36
2024/03/15 12:39:26;;;;;;;4.05;3.28;;;18.20;80.10;;;;;;4966959;28;20027;-38
2024/03/15 12:41:55;;;;;;;4.60;2.85;;;18.10;80.70;;;;;;4961123;28;20031;-36
2024/03/15 12:44:21;;;;;;;3.38;2.95;;;18.20;80.20;;;;;;4961660;28;20023;-39
2024/03/15 12:46:47;;;;;;;4.13;2.90;;;18.20;80.20;;;;;;4976098;28;20023;-35
2024/03/15 12:49:13;;;;;;;4.22;2.65;;;18.20;80.20;;;;;;4974606;28;20058;-35
2024/03/15 12:51:39;;;;;;;3.45;2.42;;;18.20;80.20;;;;;;4979353;28;20050;-37